sensor_id;sensor_type;location;lat;lon;timestamp;temperature;humidity
19330;DHT22;9799;48.214;16.388;2022-10-28T00:02:11;12.60;99.90
19330;DHT22;9799;48.214;16.388;2022-10-28T00:05:33;12.60;99.90
19330;DHT22;9799;48.214;16.388;2022-10-28T00:08:54;12.60;99.90
19330;DHT22;9799;48.214;16.388;2022-10-28T00:12:17;12.50;99.90
19330;DHT22;9799;48.214;16.388;2022-10-28T00:15:38;12.50;99.90
19330;DHT22;9799;48.214;16.388;2022-10-28T00:19:00;12.50;99.90
19330;DHT22;9799;48.214;16.388;2022-10-28T00:22:22;12.50;99.90
19330;DHT22;9799;48.214;16.388;2022-10-28T00:25:43;12.50;99.90
19330;DHT22;9799;48.214;16.388;2022-10-28T00:29:08;12.50;99.90
19330;DHT22;9799;48.214;16.388;2022-10-28T00:32:29;12.50;99.90
19330;DHT22;9799;48.214;16.388;2022-10-28T00:35:51;12.50;99.90
19330;DHT22;9799;48.214;16.388;2022-10-28T00:39:13;12.50;99.90
19330;DHT22;9799;48.214;16.388;2022-10-28T00:42:35;12.50;99.90
19330;DHT22;9799;48.214;16.388;2022-10-28T00:45:57;12.50;99.90
19330;DHT22;9799;48.214;16.388;2022-10-28T00:49:22;12.50;99.90
19330;DHT22;9799;48.214;16.388;2022-10-28T00:52:46;12.50;99.90
19330;DHT22;9799;48.214;16.388;2022-10-28T00:56:10;12.50;99.90
19330;DHT22;9799;48.214;16.388;2022-10-28T00:59:35;12.40;99.90
19330;DHT22;9799;48.214;16.388;2022-10-28T01:02:58;12.40;99.90
19330;DHT22;9799;48.214;16.388;2022-10-28T01:06:19;12.30;99.90
19330;DHT22;9799;48.214;16.388;2022-10-28T01:09:41;12.40;99.90
19330;DHT22;9799;48.214;16.388;2022-10-28T01:13:09;12.40;99.90
19330;DHT22;9799;48.214;16.388;2022-10-28T01:16:37;12.40;99.90
19330;DHT22;9799;48.214;16.388;2022-10-28T01:20:24;12.40;99.90
19330;DHT22;9799;48.214;16.388;2022-10-28T01:31:38;12.40;99.90
19330;DHT22;9799;48.214;16.388;2022-10-28T01:35:10;12.30;99.90
19330;DHT22;9799;48.214;16.388;2022-10-28T01:38:38;12.30;99.90
19330;DHT22;9799;48.214;16.388;2022-10-28T01:42:09;12.40;99.90
19330;DHT22;9799;48.214;16.388;2022-10-28T01:45:37;12.30;99.90
19330;DHT22;9799;48.214;16.388;2022-10-28T01:49:06;12.30;99.90
19330;DHT22;9799;48.214;16.388;2022-10-28T01:52:31;12.40;99.90
19330;DHT22;9799;48.214;16.388;2022-10-28T01:55:55;12.30;99.90
19330;DHT22;9799;48.214;16.388;2022-10-28T01:59:20;12.30;99.90
19330;DHT22;9799;48.214;16.388;2022-10-28T02:02:44;12.40;99.90
19330;DHT22;9799;48.214;16.388;2022-10-28T02:06:14;12.40;99.90
19330;DHT22;9799;48.214;16.388;2022-10-28T02:09:50;12.40;99.90
19330;DHT22;9799;48.214;16.388;2022-10-28T02:13:14;12.20;99.90
19330;DHT22;9799;48.214;16.388;2022-10-28T02:16:42;12.30;99.90
19330;DHT22;9799;48.214;16.388;2022-10-28T02:20:11;12.30;99.90
19330;DHT22;9799;48.214;16.388;2022-10-28T02:23:41;12.30;99.90
19330;DHT22;9799;48.214;16.388;2022-10-28T02:27:07;12.30;99.90
19330;DHT22;9799;48.214;16.388;2022-10-28T02:30:36;12.20;99.90
19330;DHT22;9799;48.214;16.388;2022-10-28T02:34:04;12.20;99.90
19330;DHT22;9799;48.214;16.388;2022-10-28T02:37:29;12.30;99.90
19330;DHT22;9799;48.214;16.388;2022-10-28T02:40:57;12.40;99.90
19330;DHT22;9799;48.214;16.388;2022-10-28T02:44:22;12.40;99.90
19330;DHT22;9799;48.214;16.388;2022-10-28T02:47:48;12.30;99.90
19330;DHT22;9799;48.214;16.388;2022-10-28T02:51:12;12.30;99.90
19330;DHT22;9799;48.214;16.388;2022-10-28T02:54:38;12.30;99.90
19330;DHT22;9799;48.214;16.388;2022-10-28T02:58:02;12.30;99.90
19330;DHT22;9799;48.214;16.388;2022-10-28T03:01:23;12.30;99.90
19330;DHT22;9799;48.214;16.388;2022-10-28T03:04:44;12.30;99.90
19330;DHT22;9799;48.214;16.388;2022-10-28T03:08:06;12.30;99.90
19330;DHT22;9799;48.214;16.388;2022-10-28T03:11:27;12.30;99.90
19330;DHT22;9799;48.214;16.388;2022-10-28T03:14:49;12.40;99.90
19330;DHT22;9799;48.214;16.388;2022-10-28T03:18:10;12.30;99.90
19330;DHT22;9799;48.214;16.388;2022-10-28T03:21:31;12.30;99.90
19330;DHT22;9799;48.214;16.388;2022-10-28T03:24:52;12.30;99.90
19330;DHT22;9799;48.214;16.388;2022-10-28T03:28:14;12.30;99.90
19330;DHT22;9799;48.214;16.388;2022-10-28T03:31:36;12.30;99.90
19330;DHT22;9799;48.214;16.388;2022-10-28T03:34:57;12.30;99.90
19330;DHT22;9799;48.214;16.388;2022-10-28T03:38:18;12.30;99.90
19330;DHT22;9799;48.214;16.388;2022-10-28T03:41:40;12.30;99.90
19330;DHT22;9799;48.214;16.388;2022-10-28T03:45:01;12.30;99.90
19330;DHT22;9799;48.214;16.388;2022-10-28T03:48:23;12.30;99.90
19330;DHT22;9799;48.214;16.388;2022-10-28T03:51:44;12.30;99.90
19330;DHT22;9799;48.214;16.388;2022-10-28T03:55:06;12.40;99.90
19330;DHT22;9799;48.214;16.388;2022-10-28T03:58:28;12.50;99.90
19330;DHT22;9799;48.214;16.388;2022-10-28T04:01:49;12.50;99.90
19330;DHT22;9799;48.214;16.388;2022-10-28T04:05:11;12.50;99.90
19330;DHT22;9799;48.214;16.388;2022-10-28T04:08:32;12.50;99.90
19330;DHT22;9799;48.214;16.388;2022-10-28T04:11:53;12.50;99.90
19330;DHT22;9799;48.214;16.388;2022-10-28T04:15:15;12.40;99.90
19330;DHT22;9799;48.214;16.388;2022-10-28T04:18:36;12.30;99.90
19330;DHT22;9799;48.214;16.388;2022-10-28T04:21:59;12.30;99.90
19330;DHT22;9799;48.214;16.388;2022-10-28T04:25:20;12.50;99.90
19330;DHT22;9799;48.214;16.388;2022-10-28T04:28:41;12.40;99.90
19330;DHT22;9799;48.214;16.388;2022-10-28T04:32:02;12.50;99.90
19330;DHT22;9799;48.214;16.388;2022-10-28T04:35:23;12.40;99.90
19330;DHT22;9799;48.214;16.388;2022-10-28T04:38:46;12.40;99.90
19330;DHT22;9799;48.214;16.388;2022-10-28T04:42:09;12.40;99.90
19330;DHT22;9799;48.214;16.388;2022-10-28T04:45:30;12.40;99.90
19330;DHT22;9799;48.214;16.388;2022-10-28T04:48:52;12.30;99.90
19330;DHT22;9799;48.214;16.388;2022-10-28T04:52:13;12.30;99.90
19330;DHT22;9799;48.214;16.388;2022-10-28T04:55:35;12.30;99.90
19330;DHT22;9799;48.214;16.388;2022-10-28T04:58:56;12.30;99.90
19330;DHT22;9799;48.214;16.388;2022-10-28T05:02:18;12.30;99.90
19330;DHT22;9799;48.214;16.388;2022-10-28T05:05:39;12.30;99.90
19330;DHT22;9799;48.214;16.388;2022-10-28T05:09:00;12.30;99.90
19330;DHT22;9799;48.214;16.388;2022-10-28T05:12:22;12.30;99.90
19330;DHT22;9799;48.214;16.388;2022-10-28T05:15:46;12.30;99.90
19330;DHT22;9799;48.214;16.388;2022-10-28T05:19:07;12.30;99.90
19330;DHT22;9799;48.214;16.388;2022-10-28T05:22:28;12.20;99.90
19330;DHT22;9799;48.214;16.388;2022-10-28T05:25:49;12.30;99.90
19330;DHT22;9799;48.214;16.388;2022-10-28T05:29:12;12.40;99.90
19330;DHT22;9799;48.214;16.388;2022-10-28T05:32:33;12.40;99.90
19330;DHT22;9799;48.214;16.388;2022-10-28T05:35:57;12.40;99.90
19330;DHT22;9799;48.214;16.388;2022-10-28T05:39:18;12.50;99.90
19330;DHT22;9799;48.214;16.388;2022-10-28T05:42:40;12.50;99.90
19330;DHT22;9799;48.214;16.388;2022-10-28T05:46:03;12.60;99.90
19330;DHT22;9799;48.214;16.388;2022-10-28T05:49:24;12.60;99.90
19330;DHT22;9799;48.214;16.388;2022-10-28T05:52:46;12.50;99.90
19330;DHT22;9799;48.214;16.388;2022-10-28T05:56:08;12.40;99.90
19330;DHT22;9799;48.214;16.388;2022-10-28T05:59:29;12.40;99.90
19330;DHT22;9799;48.214;16.388;2022-10-28T06:02:51;12.40;99.90
19330;DHT22;9799;48.214;16.388;2022-10-28T06:06:12;12.40;99.90
19330;DHT22;9799;48.214;16.388;2022-10-28T06:09:34;12.50;99.90
19330;DHT22;9799;48.214;16.388;2022-10-28T06:12:55;12.50;99.90
19330;DHT22;9799;48.214;16.388;2022-10-28T06:16:17;12.40;99.90
19330;DHT22;9799;48.214;16.388;2022-10-28T06:19:39;12.40;99.90
19330;DHT22;9799;48.214;16.388;2022-10-28T06:23:00;12.50;99.90
19330;DHT22;9799;48.214;16.388;2022-10-28T06:26:21;12.50;99.90
19330;DHT22;9799;48.214;16.388;2022-10-28T06:29:43;12.40;99.90
19330;DHT22;9799;48.214;16.388;2022-10-28T06:33:04;12.40;99.90
19330;DHT22;9799;48.214;16.388;2022-10-28T06:36:26;12.40;99.90
19330;DHT22;9799;48.214;16.388;2022-10-28T06:39:48;12.50;99.90
19330;DHT22;9799;48.214;16.388;2022-10-28T06:43:11;12.40;99.90
19330;DHT22;9799;48.214;16.388;2022-10-28T06:46:33;12.40;99.90
19330;DHT22;9799;48.214;16.388;2022-10-28T06:49:54;12.40;99.90
19330;DHT22;9799;48.214;16.388;2022-10-28T06:53:16;12.50;99.90
19330;DHT22;9799;48.214;16.388;2022-10-28T06:56:38;12.50;99.90
19330;DHT22;9799;48.214;16.388;2022-10-28T06:59:59;12.50;99.90
19330;DHT22;9799;48.214;16.388;2022-10-28T07:03:20;12.50;99.90
19330;DHT22;9799;48.214;16.388;2022-10-28T07:06:41;12.40;99.90
19330;DHT22;9799;48.214;16.388;2022-10-28T07:10:04;12.40;99.90
19330;DHT22;9799;48.214;16.388;2022-10-28T07:13:26;12.50;99.90
19330;DHT22;9799;48.214;16.388;2022-10-28T07:16:47;12.50;99.90
19330;DHT22;9799;48.214;16.388;2022-10-28T07:20:10;12.60;99.90
19330;DHT22;9799;48.214;16.388;2022-10-28T07:23:31;12.70;99.90
19330;DHT22;9799;48.214;16.388;2022-10-28T07:26:54;12.70;99.90
19330;DHT22;9799;48.214;16.388;2022-10-28T07:30:15;12.70;99.90
19330;DHT22;9799;48.214;16.388;2022-10-28T07:33:36;12.70;99.90
19330;DHT22;9799;48.214;16.388;2022-10-28T07:36:58;12.70;99.90
19330;DHT22;9799;48.214;16.388;2022-10-28T07:40:19;12.70;99.90
19330;DHT22;9799;48.214;16.388;2022-10-28T07:43:41;12.80;99.90
19330;DHT22;9799;48.214;16.388;2022-10-28T07:47:03;12.90;99.90
19330;DHT22;9799;48.214;16.388;2022-10-28T07:50:24;12.80;99.90
19330;DHT22;9799;48.214;16.388;2022-10-28T07:53:45;12.70;99.90
19330;DHT22;9799;48.214;16.388;2022-10-28T07:57:06;12.70;99.90
19330;DHT22;9799;48.214;16.388;2022-10-28T08:00:28;12.60;99.90
19330;DHT22;9799;48.214;16.388;2022-10-28T08:03:50;12.40;99.90
19330;DHT22;9799;48.214;16.388;2022-10-28T08:07:11;12.50;99.90
19330;DHT22;9799;48.214;16.388;2022-10-28T08:10:33;12.50;99.90
19330;DHT22;9799;48.214;16.388;2022-10-28T08:13:54;12.60;99.90
19330;DHT22;9799;48.214;16.388;2022-10-28T08:17:19;12.60;99.90
19330;DHT22;9799;48.214;16.388;2022-10-28T08:20:40;12.50;99.90
19330;DHT22;9799;48.214;16.388;2022-10-28T08:24:01;12.70;99.90
19330;DHT22;9799;48.214;16.388;2022-10-28T08:27:22;12.60;99.90
19330;DHT22;9799;48.214;16.388;2022-10-28T08:30:44;12.50;99.90
19330;DHT22;9799;48.214;16.388;2022-10-28T08:34:06;12.50;99.90
19330;DHT22;9799;48.214;16.388;2022-10-28T08:37:28;12.50;99.90
19330;DHT22;9799;48.214;16.388;2022-10-28T08:40:57;12.70;99.90
19330;DHT22;9799;48.214;16.388;2022-10-28T08:44:40;12.60;99.90
19330;DHT22;9799;48.214;16.388;2022-10-28T08:48:11;12.50;99.90
19330;DHT22;9799;48.214;16.388;2022-10-28T08:51:40;12.70;99.90
19330;DHT22;9799;48.214;16.388;2022-10-28T08:55:06;12.70;99.90
19330;DHT22;9799;48.214;16.388;2022-10-28T08:58:31;12.70;99.90
19330;DHT22;9799;48.214;16.388;2022-10-28T09:01:58;12.80;99.90
19330;DHT22;9799;48.214;16.388;2022-10-28T09:05:21;12.90;99.90
19330;DHT22;9799;48.214;16.388;2022-10-28T09:08:46;13.00;99.90
19330;DHT22;9799;48.214;16.388;2022-10-28T09:12:20;13.00;99.90
19330;DHT22;9799;48.214;16.388;2022-10-28T09:15:48;13.10;99.90
19330;DHT22;9799;48.214;16.388;2022-10-28T09:19:19;13.10;99.90
19330;DHT22;9799;48.214;16.388;2022-10-28T09:22:51;13.00;99.90
19330;DHT22;9799;48.214;16.388;2022-10-28T09:26:21;12.90;99.90
19330;DHT22;9799;48.214;16.388;2022-10-28T09:29:47;12.70;99.90
19330;DHT22;9799;48.214;16.388;2022-10-28T09:33:26;12.70;99.90
19330;DHT22;9799;48.214;16.388;2022-10-28T09:37:00;12.80;99.90
19330;DHT22;9799;48.214;16.388;2022-10-28T09:40:24;12.80;99.90
19330;DHT22;9799;48.214;16.388;2022-10-28T09:43:49;12.90;99.90
19330;DHT22;9799;48.214;16.388;2022-10-28T09:47:14;12.90;99.90
19330;DHT22;9799;48.214;16.388;2022-10-28T09:50:37;13.00;99.90
19330;DHT22;9799;48.214;16.388;2022-10-28T09:54:00;13.00;99.90
19330;DHT22;9799;48.214;16.388;2022-10-28T09:57:31;13.00;99.90
19330;DHT22;9799;48.214;16.388;2022-10-28T10:00:53;13.00;99.90
19330;DHT22;9799;48.214;16.388;2022-10-28T10:04:18;13.00;99.90
19330;DHT22;9799;48.214;16.388;2022-10-28T10:07:42;13.00;99.90
19330;DHT22;9799;48.214;16.388;2022-10-28T10:11:06;13.00;99.90
19330;DHT22;9799;48.214;16.388;2022-10-28T10:14:38;12.90;99.90
19330;DHT22;9799;48.214;16.388;2022-10-28T10:18:04;13.10;99.90
19330;DHT22;9799;48.214;16.388;2022-10-28T10:21:43;12.90;99.90
19330;DHT22;9799;48.214;16.388;2022-10-28T10:25:23;13.00;99.90
19330;DHT22;9799;48.214;16.388;2022-10-28T10:28:46;13.10;99.90
19330;DHT22;9799;48.214;16.388;2022-10-28T10:32:15;13.00;99.90
19330;DHT22;9799;48.214;16.388;2022-10-28T10:35:39;13.00;99.90
19330;DHT22;9799;48.214;16.388;2022-10-28T10:39:02;13.20;99.90
19330;DHT22;9799;48.214;16.388;2022-10-28T10:42:23;13.30;99.90
19330;DHT22;9799;48.214;16.388;2022-10-28T10:45:51;13.30;99.90
19330;DHT22;9799;48.214;16.388;2022-10-28T10:49:13;13.30;99.90
19330;DHT22;9799;48.214;16.388;2022-10-28T10:52:36;13.30;99.90
19330;DHT22;9799;48.214;16.388;2022-10-28T10:56:00;13.40;99.90
19330;DHT22;9799;48.214;16.388;2022-10-28T10:59:25;13.40;99.90
19330;DHT22;9799;48.214;16.388;2022-10-28T11:02:47;13.30;99.90
19330;DHT22;9799;48.214;16.388;2022-10-28T11:06:18;13.30;99.90
19330;DHT22;9799;48.214;16.388;2022-10-28T11:09:41;13.30;99.90
19330;DHT22;9799;48.214;16.388;2022-10-28T11:13:07;13.40;99.90
19330;DHT22;9799;48.214;16.388;2022-10-28T11:16:47;13.40;99.90
19330;DHT22;9799;48.214;16.388;2022-10-28T11:20:21;13.40;99.90
19330;DHT22;9799;48.214;16.388;2022-10-28T11:23:53;13.40;99.90
19330;DHT22;9799;48.214;16.388;2022-10-28T11:27:27;13.40;99.90
19330;DHT22;9799;48.214;16.388;2022-10-28T11:31:01;13.30;99.90
19330;DHT22;9799;48.214;16.388;2022-10-28T11:34:37;13.40;99.90
19330;DHT22;9799;48.214;16.388;2022-10-28T11:38:08;13.20;99.90
19330;DHT22;9799;48.214;16.388;2022-10-28T11:41:36;13.20;99.90
19330;DHT22;9799;48.214;16.388;2022-10-28T11:45:04;13.20;99.90
19330;DHT22;9799;48.214;16.388;2022-10-28T11:48:41;13.30;99.90
19330;DHT22;9799;48.214;16.388;2022-10-28T11:52:19;13.30;99.90
19330;DHT22;9799;48.214;16.388;2022-10-28T11:55:48;13.20;99.90
19330;DHT22;9799;48.214;16.388;2022-10-28T11:59:38;13.30;99.90
19330;DHT22;9799;48.214;16.388;2022-10-28T12:03:27;13.40;99.90
19330;DHT22;9799;48.214;16.388;2022-10-28T12:07:07;13.40;99.90
19330;DHT22;9799;48.214;16.388;2022-10-28T12:10:43;13.50;99.90
19330;DHT22;9799;48.214;16.388;2022-10-28T12:14:13;13.40;99.90
19330;DHT22;9799;48.214;16.388;2022-10-28T12:17:41;13.40;99.90
19330;DHT22;9799;48.214;16.388;2022-10-28T12:21:13;13.40;99.90
19330;DHT22;9799;48.214;16.388;2022-10-28T12:24:39;13.50;99.90
19330;DHT22;9799;48.214;16.388;2022-10-28T12:28:06;13.50;99.90
19330;DHT22;9799;48.214;16.388;2022-10-28T12:31:36;13.40;99.90
19330;DHT22;9799;48.214;16.388;2022-10-28T12:35:03;13.50;99.90
19330;DHT22;9799;48.214;16.388;2022-10-28T12:38:32;13.60;99.90
19330;DHT22;9799;48.214;16.388;2022-10-28T12:41:58;13.60;99.90
19330;DHT22;9799;48.214;16.388;2022-10-28T12:45:21;13.60;99.90
19330;DHT22;9799;48.214;16.388;2022-10-28T12:48:47;13.50;99.90
19330;DHT22;9799;48.214;16.388;2022-10-28T12:52:18;13.50;99.90
19330;DHT22;9799;48.214;16.388;2022-10-28T12:55:47;13.50;99.90
19330;DHT22;9799;48.214;16.388;2022-10-28T12:59:12;13.50;99.90
19330;DHT22;9799;48.214;16.388;2022-10-28T13:02:38;13.50;99.90
19330;DHT22;9799;48.214;16.388;2022-10-28T13:06:17;13.60;99.90
19330;DHT22;9799;48.214;16.388;2022-10-28T13:09:49;13.60;99.90
19330;DHT22;9799;48.214;16.388;2022-10-28T13:13:26;13.70;99.90
19330;DHT22;9799;48.214;16.388;2022-10-28T13:17:07;13.50;99.90
19330;DHT22;9799;48.214;16.388;2022-10-28T13:20:42;13.50;99.90
19330;DHT22;9799;48.214;16.388;2022-10-28T13:24:13;13.50;99.90
19330;DHT22;9799;48.214;16.388;2022-10-28T13:27:38;13.50;99.90
19330;DHT22;9799;48.214;16.388;2022-10-28T13:31:02;13.50;99.90
19330;DHT22;9799;48.214;16.388;2022-10-28T13:34:30;13.40;99.90
19330;DHT22;9799;48.214;16.388;2022-10-28T13:37:53;13.40;99.90
19330;DHT22;9799;48.214;16.388;2022-10-28T13:41:39;13.50;99.90
19330;DHT22;9799;48.214;16.388;2022-10-28T13:45:01;13.40;99.90
19330;DHT22;9799;48.214;16.388;2022-10-28T13:48:48;13.50;99.90
19330;DHT22;9799;48.214;16.388;2022-10-28T13:52:18;13.70;99.90
19330;DHT22;9799;48.214;16.388;2022-10-28T13:55:42;13.70;99.90
19330;DHT22;9799;48.214;16.388;2022-10-28T13:59:14;13.60;99.90
19330;DHT22;9799;48.214;16.388;2022-10-28T14:02:38;13.60;99.90
19330;DHT22;9799;48.214;16.388;2022-10-28T14:06:01;13.50;99.90
19330;DHT22;9799;48.214;16.388;2022-10-28T14:09:26;13.50;99.90
19330;DHT22;9799;48.214;16.388;2022-10-28T14:12:51;13.40;99.90
19330;DHT22;9799;48.214;16.388;2022-10-28T14:16:22;13.40;99.90
19330;DHT22;9799;48.214;16.388;2022-10-28T14:19:47;13.40;99.90
19330;DHT22;9799;48.214;16.388;2022-10-28T14:27:30;13.40;99.90
19330;DHT22;9799;48.214;16.388;2022-10-28T14:31:18;13.30;99.90
19330;DHT22;9799;48.214;16.388;2022-10-28T14:34:44;13.40;99.90
19330;DHT22;9799;48.214;16.388;2022-10-28T14:38:29;13.30;99.90
19330;DHT22;9799;48.214;16.388;2022-10-28T14:42:09;13.20;99.90
19330;DHT22;9799;48.214;16.388;2022-10-28T14:45:40;13.30;99.90
19330;DHT22;9799;48.214;16.388;2022-10-28T14:49:15;13.30;99.90
19330;DHT22;9799;48.214;16.388;2022-10-28T14:52:37;13.30;99.90
19330;DHT22;9799;48.214;16.388;2022-10-28T14:56:01;13.20;99.90
19330;DHT22;9799;48.214;16.388;2022-10-28T14:59:25;13.30;99.90
19330;DHT22;9799;48.214;16.388;2022-10-28T15:02:49;13.20;99.90
19330;DHT22;9799;48.214;16.388;2022-10-28T15:06:29;13.10;99.90
19330;DHT22;9799;48.214;16.388;2022-10-28T15:09:51;13.20;99.90
19330;DHT22;9799;48.214;16.388;2022-10-28T15:13:15;13.20;99.90
19330;DHT22;9799;48.214;16.388;2022-10-28T15:16:45;13.10;99.90
19330;DHT22;9799;48.214;16.388;2022-10-28T15:20:19;13.20;99.90
19330;DHT22;9799;48.214;16.388;2022-10-28T15:23:40;13.10;99.90
19330;DHT22;9799;48.214;16.388;2022-10-28T15:27:02;13.00;99.90
19330;DHT22;9799;48.214;16.388;2022-10-28T15:30:24;13.10;99.90
19330;DHT22;9799;48.214;16.388;2022-10-28T15:33:46;13.00;99.90
19330;DHT22;9799;48.214;16.388;2022-10-28T15:37:09;13.10;99.90
19330;DHT22;9799;48.214;16.388;2022-10-28T15:40:31;13.00;99.90
19330;DHT22;9799;48.214;16.388;2022-10-28T15:43:54;13.00;99.90
19330;DHT22;9799;48.214;16.388;2022-10-28T15:47:30;13.10;99.90
19330;DHT22;9799;48.214;16.388;2022-10-28T15:51:10;13.10;99.90
19330;DHT22;9799;48.214;16.388;2022-10-28T15:54:33;13.00;99.90
19330;DHT22;9799;48.214;16.388;2022-10-28T15:57:56;13.00;99.90
19330;DHT22;9799;48.214;16.388;2022-10-28T16:01:28;13.00;99.90
19330;DHT22;9799;48.214;16.388;2022-10-28T16:04:50;12.80;99.90
19330;DHT22;9799;48.214;16.388;2022-10-28T16:08:16;12.80;99.90
19330;DHT22;9799;48.214;16.388;2022-10-28T16:11:43;13.00;99.90
19330;DHT22;9799;48.214;16.388;2022-10-28T16:15:12;13.10;99.90
19330;DHT22;9799;48.214;16.388;2022-10-28T16:18:39;13.00;99.90
19330;DHT22;9799;48.214;16.388;2022-10-28T16:22:01;13.00;99.90
19330;DHT22;9799;48.214;16.388;2022-10-28T16:25:22;13.10;99.90
19330;DHT22;9799;48.214;16.388;2022-10-28T16:28:45;13.10;99.90
19330;DHT22;9799;48.214;16.388;2022-10-28T16:32:07;13.10;99.90
19330;DHT22;9799;48.214;16.388;2022-10-28T16:35:30;13.20;99.90
19330;DHT22;9799;48.214;16.388;2022-10-28T16:38:51;13.20;99.90
19330;DHT22;9799;48.214;16.388;2022-10-28T16:42:12;13.20;99.90
19330;DHT22;9799;48.214;16.388;2022-10-28T16:45:35;13.10;99.90
19330;DHT22;9799;48.214;16.388;2022-10-28T16:48:56;13.00;99.90
19330;DHT22;9799;48.214;16.388;2022-10-28T16:52:19;13.00;99.90
19330;DHT22;9799;48.214;16.388;2022-10-28T16:55:41;13.00;99.90
19330;DHT22;9799;48.214;16.388;2022-10-28T16:59:02;13.00;99.90
19330;DHT22;9799;48.214;16.388;2022-10-28T17:02:27;13.00;99.90
19330;DHT22;9799;48.214;16.388;2022-10-28T17:05:48;13.00;99.90
19330;DHT22;9799;48.214;16.388;2022-10-28T17:09:10;13.00;99.90
19330;DHT22;9799;48.214;16.388;2022-10-28T17:12:31;13.00;99.90
19330;DHT22;9799;48.214;16.388;2022-10-28T17:15:53;13.00;99.90
19330;DHT22;9799;48.214;16.388;2022-10-28T17:19:16;13.00;99.90
19330;DHT22;9799;48.214;16.388;2022-10-28T17:22:39;13.00;99.90
19330;DHT22;9799;48.214;16.388;2022-10-28T17:26:01;13.00;99.90
19330;DHT22;9799;48.214;16.388;2022-10-28T17:29:23;13.10;99.90
19330;DHT22;9799;48.214;16.388;2022-10-28T17:32:49;13.00;99.90
19330;DHT22;9799;48.214;16.388;2022-10-28T17:36:11;12.90;99.90
19330;DHT22;9799;48.214;16.388;2022-10-28T17:39:33;12.90;99.90
19330;DHT22;9799;48.214;16.388;2022-10-28T17:42:58;12.80;99.90
19330;DHT22;9799;48.214;16.388;2022-10-28T17:46:20;12.90;99.90
19330;DHT22;9799;48.214;16.388;2022-10-28T17:49:42;13.00;99.90
19330;DHT22;9799;48.214;16.388;2022-10-28T17:53:05;13.10;99.90
19330;DHT22;9799;48.214;16.388;2022-10-28T17:56:27;13.10;99.90
19330;DHT22;9799;48.214;16.388;2022-10-28T17:59:49;13.10;99.90
19330;DHT22;9799;48.214;16.388;2022-10-28T18:03:11;13.10;99.90
19330;DHT22;9799;48.214;16.388;2022-10-28T18:06:33;13.10;99.90
19330;DHT22;9799;48.214;16.388;2022-10-28T18:09:56;13.10;99.90
19330;DHT22;9799;48.214;16.388;2022-10-28T18:13:18;13.10;99.90
19330;DHT22;9799;48.214;16.388;2022-10-28T18:16:40;13.10;99.90
19330;DHT22;9799;48.214;16.388;2022-10-28T18:20:02;13.10;99.90
19330;DHT22;9799;48.214;16.388;2022-10-28T18:23:24;13.10;99.90
19330;DHT22;9799;48.214;16.388;2022-10-28T18:26:47;13.10;99.90
19330;DHT22;9799;48.214;16.388;2022-10-28T18:30:09;13.10;99.90
19330;DHT22;9799;48.214;16.388;2022-10-28T18:33:31;13.10;99.90
19330;DHT22;9799;48.214;16.388;2022-10-28T18:36:53;13.10;99.90
19330;DHT22;9799;48.214;16.388;2022-10-28T18:40:14;13.10;99.90
19330;DHT22;9799;48.214;16.388;2022-10-28T18:43:41;13.10;99.90
19330;DHT22;9799;48.214;16.388;2022-10-28T18:47:03;13.20;99.90
19330;DHT22;9799;48.214;16.388;2022-10-28T18:50:24;13.30;99.90
19330;DHT22;9799;48.214;16.388;2022-10-28T18:53:47;13.40;99.90
19330;DHT22;9799;48.214;16.388;2022-10-28T18:57:09;13.40;99.90
19330;DHT22;9799;48.214;16.388;2022-10-28T19:00:32;13.50;99.90
19330;DHT22;9799;48.214;16.388;2022-10-28T19:03:56;13.30;99.90
19330;DHT22;9799;48.214;16.388;2022-10-28T19:07:18;13.30;99.90
19330;DHT22;9799;48.214;16.388;2022-10-28T19:10:40;13.30;99.90
19330;DHT22;9799;48.214;16.388;2022-10-28T19:14:03;13.40;99.90
19330;DHT22;9799;48.214;16.388;2022-10-28T19:17:26;13.30;99.90
19330;DHT22;9799;48.214;16.388;2022-10-28T19:20:47;13.20;99.90
19330;DHT22;9799;48.214;16.388;2022-10-28T19:24:10;13.20;99.90
19330;DHT22;9799;48.214;16.388;2022-10-28T19:27:32;13.20;99.90
19330;DHT22;9799;48.214;16.388;2022-10-28T19:31:00;13.10;99.90
19330;DHT22;9799;48.214;16.388;2022-10-28T19:34:23;13.10;99.90
19330;DHT22;9799;48.214;16.388;2022-10-28T19:37:46;13.10;99.90
19330;DHT22;9799;48.214;16.388;2022-10-28T19:41:09;13.00;99.90
19330;DHT22;9799;48.214;16.388;2022-10-28T19:44:30;13.10;99.90
19330;DHT22;9799;48.214;16.388;2022-10-28T19:47:52;13.10;99.90
19330;DHT22;9799;48.214;16.388;2022-10-28T19:51:19;13.20;99.90
19330;DHT22;9799;48.214;16.388;2022-10-28T19:54:41;13.20;99.90
19330;DHT22;9799;48.214;16.388;2022-10-28T19:58:03;13.20;99.90
19330;DHT22;9799;48.214;16.388;2022-10-28T20:01:26;13.10;99.90
19330;DHT22;9799;48.214;16.388;2022-10-28T20:04:48;13.20;99.90
19330;DHT22;9799;48.214;16.388;2022-10-28T20:08:14;13.20;99.90
19330;DHT22;9799;48.214;16.388;2022-10-28T20:11:37;13.30;99.90
19330;DHT22;9799;48.214;16.388;2022-10-28T20:14:59;13.20;99.90
19330;DHT22;9799;48.214;16.388;2022-10-28T20:18:22;13.20;99.90
19330;DHT22;9799;48.214;16.388;2022-10-28T20:21:45;13.20;99.90
19330;DHT22;9799;48.214;16.388;2022-10-28T20:25:09;13.30;99.90
19330;DHT22;9799;48.214;16.388;2022-10-28T20:28:30;13.30;99.90
19330;DHT22;9799;48.214;16.388;2022-10-28T20:31:52;13.30;99.90
19330;DHT22;9799;48.214;16.388;2022-10-28T20:35:13;13.30;99.90
19330;DHT22;9799;48.214;16.388;2022-10-28T20:38:35;13.20;99.90
19330;DHT22;9799;48.214;16.388;2022-10-28T20:41:57;13.30;99.90
19330;DHT22;9799;48.214;16.388;2022-10-28T20:45:18;13.40;99.90
19330;DHT22;9799;48.214;16.388;2022-10-28T20:48:40;13.40;99.90
19330;DHT22;9799;48.214;16.388;2022-10-28T20:52:01;13.40;99.90
19330;DHT22;9799;48.214;16.388;2022-10-28T20:55:22;13.30;99.90
19330;DHT22;9799;48.214;16.388;2022-10-28T20:58:45;13.40;99.90
19330;DHT22;9799;48.214;16.388;2022-10-28T21:02:08;13.30;99.90
19330;DHT22;9799;48.214;16.388;2022-10-28T21:05:30;13.30;99.90
19330;DHT22;9799;48.214;16.388;2022-10-28T21:08:51;13.30;99.90
19330;DHT22;9799;48.214;16.388;2022-10-28T21:12:13;13.30;99.90
19330;DHT22;9799;48.214;16.388;2022-10-28T21:15:37;13.30;99.90
19330;DHT22;9799;48.214;16.388;2022-10-28T21:18:59;13.40;99.90
19330;DHT22;9799;48.214;16.388;2022-10-28T21:22:20;13.50;99.90
19330;DHT22;9799;48.214;16.388;2022-10-28T21:25:41;13.60;99.90
19330;DHT22;9799;48.214;16.388;2022-10-28T21:29:02;13.40;99.90
19330;DHT22;9799;48.214;16.388;2022-10-28T21:32:25;13.40;99.90
19330;DHT22;9799;48.214;16.388;2022-10-28T21:35:53;13.40;99.90
19330;DHT22;9799;48.214;16.388;2022-10-28T21:39:15;13.50;99.90
19330;DHT22;9799;48.214;16.388;2022-10-28T21:42:36;13.50;99.90
19330;DHT22;9799;48.214;16.388;2022-10-28T21:45:57;13.50;99.90